sensor_id;sensor_type;location;lat;lon;timestamp;P1;durP1;ratioP1;P2;durP2;ratioP2
10701;SDS011;5402;50.004;8.246;2023-04-01T00:00:47;1.90;;;1.40;;
10701;SDS011;5402;50.004;8.246;2023-04-01T00:03:15;2.57;;;1.30;;
10701;SDS011;5402;50.004;8.246;2023-04-01T00:05:42;5.73;;;1.90;;
10701;SDS011;5402;50.004;8.246;2023-04-01T00:08:08;3.07;;;1.70;;
10701;SDS011;5402;50.004;8.246;2023-04-01T00:10:36;5.00;;;1.70;;
10701;SDS011;5402;50.004;8.246;2023-04-01T00:13:03;4.07;;;1.43;;
10701;SDS011;5402;50.004;8.246;2023-04-01T00:15:30;3.60;;;1.40;;
10701;SDS011;5402;50.004;8.246;2023-04-01T00:17:57;3.57;;;1.30;;
10701;SDS011;5402;50.004;8.246;2023-04-01T00:20:25;3.30;;;1.33;;
10701;SDS011;5402;50.004;8.246;2023-04-01T00:22:52;3.43;;;1.20;;
10701;SDS011;5402;50.004;8.246;2023-04-01T00:25:18;3.53;;;1.20;;
10701;SDS011;5402;50.004;8.246;2023-04-01T00:27:45;4.73;;;1.67;;
10701;SDS011;5402;50.004;8.246;2023-04-01T00:30:12;3.20;;;1.33;;
10701;SDS011;5402;50.004;8.246;2023-04-01T00:32:40;3.37;;;1.40;;
10701;SDS011;5402;50.004;8.246;2023-04-01T00:35:07;2.93;;;1.47;;
10701;SDS011;5402;50.004;8.246;2023-04-01T00:37:35;1.80;;;1.07;;
10701;SDS011;5402;50.004;8.246;2023-04-01T00:40:04;3.40;;;1.30;;
10701;SDS011;5402;50.004;8.246;2023-04-01T00:42:32;5.27;;;1.40;;
10701;SDS011;5402;50.004;8.246;2023-04-01T00:45:21;2.17;;;1.30;;
10701;SDS011;5402;50.004;8.246;2023-04-01T00:47:52;4.87;;;1.40;;
10701;SDS011;5402;50.004;8.246;2023-04-01T00:50:19;4.00;;;1.40;;
10701;SDS011;5402;50.004;8.246;2023-04-01T00:52:49;1.97;;;1.20;;
10701;SDS011;5402;50.004;8.246;2023-04-01T00:55:16;3.33;;;1.50;;
10701;SDS011;5402;50.004;8.246;2023-04-01T00:57:44;2.53;;;1.33;;
10701;SDS011;5402;50.004;8.246;2023-04-01T01:00:12;5.07;;;1.53;;
10701;SDS011;5402;50.004;8.246;2023-04-01T01:02:41;2.57;;;1.40;;
10701;SDS011;5402;50.004;8.246;2023-04-01T01:05:09;1.93;;;1.27;;
10701;SDS011;5402;50.004;8.246;2023-04-01T01:07:38;3.80;;;1.40;;
10701;SDS011;5402;50.004;8.246;2023-04-01T01:10:15;3.80;;;1.50;;
10701;SDS011;5402;50.004;8.246;2023-04-01T01:12:45;3.53;;;1.50;;
10701;SDS011;5402;50.004;8.246;2023-04-01T01:15:16;3.20;;;1.40;;
10701;SDS011;5402;50.004;8.246;2023-04-01T01:17:48;5.87;;;1.70;;
10701;SDS011;5402;50.004;8.246;2023-04-01T01:20:39;5.97;;;1.70;;
10701;SDS011;5402;50.004;8.246;2023-04-01T01:29:31;4.17;;;1.27;;
10701;SDS011;5402;50.004;8.246;2023-04-01T01:32:07;2.47;;;1.20;;
10701;SDS011;5402;50.004;8.246;2023-04-01T01:34:44;4.27;;;1.60;;
10701;SDS011;5402;50.004;8.246;2023-04-01T01:37:22;3.80;;;1.47;;
10701;SDS011;5402;50.004;8.246;2023-04-01T01:39:52;2.37;;;1.20;;
10701;SDS011;5402;50.004;8.246;2023-04-01T01:42:22;2.27;;;0.97;;
10701;SDS011;5402;50.004;8.246;2023-04-01T01:44:52;2.03;;;1.20;;
10701;SDS011;5402;50.004;8.246;2023-04-01T01:47:23;1.87;;;1.10;;
10701;SDS011;5402;50.004;8.246;2023-04-01T01:49:51;2.80;;;1.20;;
10701;SDS011;5402;50.004;8.246;2023-04-01T01:52:22;2.90;;;1.00;;
10701;SDS011;5402;50.004;8.246;2023-04-01T01:54:50;2.93;;;1.20;;
10701;SDS011;5402;50.004;8.246;2023-04-01T01:57:17;2.10;;;1.23;;
10701;SDS011;5402;50.004;8.246;2023-04-01T01:59:48;5.50;;;1.40;;
10701;SDS011;5402;50.004;8.246;2023-04-01T02:02:17;3.90;;;1.20;;
10701;SDS011;5402;50.004;8.246;2023-04-01T02:04:45;3.87;;;1.50;;
10701;SDS011;5402;50.004;8.246;2023-04-01T02:07:13;3.57;;;1.23;;
10701;SDS011;5402;50.004;8.246;2023-04-01T02:09:45;4.30;;;1.10;;
10701;SDS011;5402;50.004;8.246;2023-04-01T02:12:14;3.07;;;1.20;;
10701;SDS011;5402;50.004;8.246;2023-04-01T02:14:43;2.10;;;1.10;;
10701;SDS011;5402;50.004;8.246;2023-04-01T02:17:16;3.47;;;1.00;;
10701;SDS011;5402;50.004;8.246;2023-04-01T02:19:47;1.80;;;1.23;;
10701;SDS011;5402;50.004;8.246;2023-04-01T02:22:20;3.17;;;1.27;;
10701;SDS011;5402;50.004;8.246;2023-04-01T02:24:49;2.83;;;1.40;;
10701;SDS011;5402;50.004;8.246;2023-04-01T02:27:18;2.30;;;1.10;;
10701;SDS011;5402;50.004;8.246;2023-04-01T02:29:46;2.57;;;1.10;;
10701;SDS011;5402;50.004;8.246;2023-04-01T02:32:13;4.10;;;1.03;;
10701;SDS011;5402;50.004;8.246;2023-04-01T02:34:41;1.90;;;1.00;;
10701;SDS011;5402;50.004;8.246;2023-04-01T02:37:09;1.73;;;1.00;;
10701;SDS011;5402;50.004;8.246;2023-04-01T02:39:37;4.07;;;1.10;;
10701;SDS011;5402;50.004;8.246;2023-04-01T02:42:05;1.37;;;0.87;;
10701;SDS011;5402;50.004;8.246;2023-04-01T02:44:32;3.17;;;1.30;;
10701;SDS011;5402;50.004;8.246;2023-04-01T02:46:58;3.87;;;1.03;;
10701;SDS011;5402;50.004;8.246;2023-04-01T02:49:25;2.17;;;1.20;;
10701;SDS011;5402;50.004;8.246;2023-04-01T02:51:52;4.57;;;1.20;;
10701;SDS011;5402;50.004;8.246;2023-04-01T02:54:19;1.20;;;0.90;;
10701;SDS011;5402;50.004;8.246;2023-04-01T02:56:46;6.50;;;1.23;;
10701;SDS011;5402;50.004;8.246;2023-04-01T02:59:14;2.50;;;1.23;;
10701;SDS011;5402;50.004;8.246;2023-04-01T03:01:40;2.13;;;1.20;;
10701;SDS011;5402;50.004;8.246;2023-04-01T03:04:07;2.07;;;1.40;;
10701;SDS011;5402;50.004;8.246;2023-04-01T03:06:34;4.73;;;1.27;;
10701;SDS011;5402;50.004;8.246;2023-04-01T03:09:01;2.03;;;1.03;;
10701;SDS011;5402;50.004;8.246;2023-04-01T03:11:28;1.27;;;1.00;;
10701;SDS011;5402;50.004;8.246;2023-04-01T03:13:55;1.90;;;1.10;;
10701;SDS011;5402;50.004;8.246;2023-04-01T03:16:23;6.20;;;1.83;;
10701;SDS011;5402;50.004;8.246;2023-04-01T03:18:50;3.90;;;1.43;;
10701;SDS011;5402;50.004;8.246;2023-04-01T03:21:18;2.10;;;1.20;;
10701;SDS011;5402;50.004;8.246;2023-04-01T03:23:46;2.63;;;1.33;;
10701;SDS011;5402;50.004;8.246;2023-04-01T03:26:13;2.17;;;1.53;;
10701;SDS011;5402;50.004;8.246;2023-04-01T03:28:40;3.07;;;1.47;;
10701;SDS011;5402;50.004;8.246;2023-04-01T03:31:07;6.20;;;1.30;;
10701;SDS011;5402;50.004;8.246;2023-04-01T03:33:35;2.43;;;1.10;;
10701;SDS011;5402;50.004;8.246;2023-04-01T03:36:02;3.17;;;1.50;;
10701;SDS011;5402;50.004;8.246;2023-04-01T03:38:31;2.30;;;1.13;;
10701;SDS011;5402;50.004;8.246;2023-04-01T03:40:58;4.43;;;1.37;;
10701;SDS011;5402;50.004;8.246;2023-04-01T03:43:24;2.10;;;1.37;;
10701;SDS011;5402;50.004;8.246;2023-04-01T03:45:51;2.77;;;1.27;;
10701;SDS011;5402;50.004;8.246;2023-04-01T03:48:19;2.47;;;1.40;;
10701;SDS011;5402;50.004;8.246;2023-04-01T03:50:47;3.00;;;1.73;;
10701;SDS011;5402;50.004;8.246;2023-04-01T03:53:14;3.37;;;1.30;;
10701;SDS011;5402;50.004;8.246;2023-04-01T03:55:41;2.30;;;1.47;;
10701;SDS011;5402;50.004;8.246;2023-04-01T03:58:07;4.33;;;1.50;;
10701;SDS011;5402;50.004;8.246;2023-04-01T04:00:34;2.90;;;1.30;;
10701;SDS011;5402;50.004;8.246;2023-04-01T04:03:01;2.30;;;1.03;;
10701;SDS011;5402;50.004;8.246;2023-04-01T04:05:28;1.67;;;1.13;;
10701;SDS011;5402;50.004;8.246;2023-04-01T04:07:57;2.27;;;1.10;;
10701;SDS011;5402;50.004;8.246;2023-04-01T04:10:24;5.17;;;1.20;;
10701;SDS011;5402;50.004;8.246;2023-04-01T04:12:51;2.03;;;1.10;;
10701;SDS011;5402;50.004;8.246;2023-04-01T04:15:18;2.20;;;1.07;;
10701;SDS011;5402;50.004;8.246;2023-04-01T04:17:45;1.27;;;1.00;;
10701;SDS011;5402;50.004;8.246;2023-04-01T04:20:12;5.03;;;1.40;;
10701;SDS011;5402;50.004;8.246;2023-04-01T04:22:38;4.13;;;1.10;;
10701;SDS011;5402;50.004;8.246;2023-04-01T04:25:07;3.33;;;1.30;;
10701;SDS011;5402;50.004;8.246;2023-04-01T04:27:34;5.67;;;1.70;;
10701;SDS011;5402;50.004;8.246;2023-04-01T04:30:01;2.93;;;1.50;;
10701;SDS011;5402;50.004;8.246;2023-04-01T04:32:28;4.07;;;1.40;;
10701;SDS011;5402;50.004;8.246;2023-04-01T04:34:55;3.67;;;1.30;;
10701;SDS011;5402;50.004;8.246;2023-04-01T04:37:22;2.10;;;1.30;;
10701;SDS011;5402;50.004;8.246;2023-04-01T04:39:50;2.77;;;1.30;;
10701;SDS011;5402;50.004;8.246;2023-04-01T04:42:19;4.17;;;1.27;;
10701;SDS011;5402;50.004;8.246;2023-04-01T04:44:45;3.80;;;1.20;;
10701;SDS011;5402;50.004;8.246;2023-04-01T04:47:12;0.90;;;0.80;;
10701;SDS011;5402;50.004;8.246;2023-04-01T04:49:39;1.80;;;1.13;;
10701;SDS011;5402;50.004;8.246;2023-04-01T04:52:06;3.10;;;1.17;;
10701;SDS011;5402;50.004;8.246;2023-04-01T04:54:32;1.47;;;1.00;;
10701;SDS011;5402;50.004;8.246;2023-04-01T04:56:59;3.30;;;1.10;;
10701;SDS011;5402;50.004;8.246;2023-04-01T04:59:27;2.13;;;1.07;;
10701;SDS011;5402;50.004;8.246;2023-04-01T05:01:54;5.00;;;1.10;;
10701;SDS011;5402;50.004;8.246;2023-04-01T05:04:20;2.73;;;0.80;;
10701;SDS011;5402;50.004;8.246;2023-04-01T05:06:47;2.10;;;1.10;;
10701;SDS011;5402;50.004;8.246;2023-04-01T05:09:14;3.23;;;1.03;;
10701;SDS011;5402;50.004;8.246;2023-04-01T05:11:41;2.87;;;1.37;;
10701;SDS011;5402;50.004;8.246;2023-04-01T05:14:11;4.77;;;1.40;;
10701;SDS011;5402;50.004;8.246;2023-04-01T05:16:40;2.97;;;0.93;;
10701;SDS011;5402;50.004;8.246;2023-04-01T05:19:06;3.20;;;1.00;;
10701;SDS011;5402;50.004;8.246;2023-04-01T05:21:33;2.17;;;1.00;;
10701;SDS011;5402;50.004;8.246;2023-04-01T05:24:00;1.00;;;0.90;;
10701;SDS011;5402;50.004;8.246;2023-04-01T05:26:26;3.27;;;0.97;;
10701;SDS011;5402;50.004;8.246;2023-04-01T05:28:53;2.77;;;1.10;;
10701;SDS011;5402;50.004;8.246;2023-04-01T05:31:20;1.37;;;0.87;;
10701;SDS011;5402;50.004;8.246;2023-04-01T05:33:50;2.70;;;1.10;;
10701;SDS011;5402;50.004;8.246;2023-04-01T05:36:17;2.93;;;1.10;;
10701;SDS011;5402;50.004;8.246;2023-04-01T05:38:43;2.83;;;1.10;;
10701;SDS011;5402;50.004;8.246;2023-04-01T05:41:12;1.13;;;0.83;;
10701;SDS011;5402;50.004;8.246;2023-04-01T05:43:39;0.77;;;0.70;;
10701;SDS011;5402;50.004;8.246;2023-04-01T05:46:07;1.17;;;0.90;;
10701;SDS011;5402;50.004;8.246;2023-04-01T05:48:33;3.37;;;1.00;;
10701;SDS011;5402;50.004;8.246;2023-04-01T05:51:02;2.40;;;0.80;;
10701;SDS011;5402;50.004;8.246;2023-04-01T05:53:29;2.83;;;0.70;;
10701;SDS011;5402;50.004;8.246;2023-04-01T05:55:56;1.10;;;0.87;;
10701;SDS011;5402;50.004;8.246;2023-04-01T05:58:23;3.63;;;0.77;;
10701;SDS011;5402;50.004;8.246;2023-04-01T06:00:49;1.63;;;0.63;;
10701;SDS011;5402;50.004;8.246;2023-04-01T06:03:16;1.20;;;0.80;;
10701;SDS011;5402;50.004;8.246;2023-04-01T06:05:43;1.10;;;0.90;;
10701;SDS011;5402;50.004;8.246;2023-04-01T06:08:12;0.97;;;0.67;;
10701;SDS011;5402;50.004;8.246;2023-04-01T06:10:44;3.10;;;0.60;;
10701;SDS011;5402;50.004;8.246;2023-04-01T06:13:21;2.40;;;0.67;;
10701;SDS011;5402;50.004;8.246;2023-04-01T06:16:01;1.13;;;0.57;;
10701;SDS011;5402;50.004;8.246;2023-04-01T06:18:45;2.20;;;0.70;;
10701;SDS011;5402;50.004;8.246;2023-04-01T06:21:33;0.93;;;0.70;;
10701;SDS011;5402;50.004;8.246;2023-04-01T06:24:18;1.60;;;0.60;;
10701;SDS011;5402;50.004;8.246;2023-04-01T06:26:57;0.93;;;0.57;;
10701;SDS011;5402;50.004;8.246;2023-04-01T06:29:43;0.47;;;0.40;;
10701;SDS011;5402;50.004;8.246;2023-04-01T06:32:22;1.27;;;0.80;;
10701;SDS011;5402;50.004;8.246;2023-04-01T06:35:01;2.27;;;0.60;;
10701;SDS011;5402;50.004;8.246;2023-04-01T06:37:45;1.30;;;0.80;;
10701;SDS011;5402;50.004;8.246;2023-04-01T06:43:37;0.97;;;0.60;;
10701;SDS011;5402;50.004;8.246;2023-04-01T06:46:14;0.80;;;0.60;;
10701;SDS011;5402;50.004;8.246;2023-04-01T06:48:57;1.17;;;0.63;;
10701;SDS011;5402;50.004;8.246;2023-04-01T06:51:31;2.83;;;0.70;;
10701;SDS011;5402;50.004;8.246;2023-04-01T06:54:04;0.60;;;0.43;;
10701;SDS011;5402;50.004;8.246;2023-04-01T06:56:39;0.97;;;0.70;;
10701;SDS011;5402;50.004;8.246;2023-04-01T06:59:09;0.67;;;0.43;;
10701;SDS011;5402;50.004;8.246;2023-04-01T07:01:39;1.57;;;0.60;;
10701;SDS011;5402;50.004;8.246;2023-04-01T07:04:09;0.70;;;0.50;;
10701;SDS011;5402;50.004;8.246;2023-04-01T07:06:42;0.67;;;0.67;;
10701;SDS011;5402;50.004;8.246;2023-04-01T07:09:14;0.50;;;0.50;;
10701;SDS011;5402;50.004;8.246;2023-04-01T07:11:46;0.53;;;0.40;;
10701;SDS011;5402;50.004;8.246;2023-04-01T07:14:14;1.33;;;0.73;;
10701;SDS011;5402;50.004;8.246;2023-04-01T07:16:46;0.40;;;0.40;;
10701;SDS011;5402;50.004;8.246;2023-04-01T07:19:18;0.53;;;0.40;;
10701;SDS011;5402;50.004;8.246;2023-04-01T07:21:52;0.93;;;0.47;;
10701;SDS011;5402;50.004;8.246;2023-04-01T07:24:23;0.63;;;0.40;;
10701;SDS011;5402;50.004;8.246;2023-04-01T07:26:55;0.63;;;0.50;;
10701;SDS011;5402;50.004;8.246;2023-04-01T07:29:23;0.87;;;0.57;;
10701;SDS011;5402;50.004;8.246;2023-04-01T07:31:57;0.93;;;0.60;;
10701;SDS011;5402;50.004;8.246;2023-04-01T07:34:44;0.60;;;0.60;;
10701;SDS011;5402;50.004;8.246;2023-04-01T07:37:18;1.23;;;0.50;;
10701;SDS011;5402;50.004;8.246;2023-04-01T07:39:54;1.60;;;0.40;;
10701;SDS011;5402;50.004;8.246;2023-04-01T07:42:31;0.97;;;0.50;;
10701;SDS011;5402;50.004;8.246;2023-04-01T07:45:09;0.60;;;0.60;;
10701;SDS011;5402;50.004;8.246;2023-04-01T07:47:45;2.23;;;0.57;;
10701;SDS011;5402;50.004;8.246;2023-04-01T07:50:25;1.53;;;0.70;;
10701;SDS011;5402;50.004;8.246;2023-04-01T07:52:56;0.30;;;0.30;;
10701;SDS011;5402;50.004;8.246;2023-04-01T07:55:31;2.37;;;0.50;;
10701;SDS011;5402;50.004;8.246;2023-04-01T07:58:04;0.33;;;0.33;;
10701;SDS011;5402;50.004;8.246;2023-04-01T08:00:37;0.67;;;0.40;;
10701;SDS011;5402;50.004;8.246;2023-04-01T08:03:15;0.50;;;0.30;;
10701;SDS011;5402;50.004;8.246;2023-04-01T08:06:00;0.83;;;0.50;;
10701;SDS011;5402;50.004;8.246;2023-04-01T08:08:35;0.33;;;0.30;;
10701;SDS011;5402;50.004;8.246;2023-04-01T08:11:13;0.87;;;0.40;;
10701;SDS011;5402;50.004;8.246;2023-04-01T08:13:51;0.87;;;0.40;;
10701;SDS011;5402;50.004;8.246;2023-04-01T08:16:26;1.23;;;0.60;;
10701;SDS011;5402;50.004;8.246;2023-04-01T08:19:01;0.87;;;0.60;;
10701;SDS011;5402;50.004;8.246;2023-04-01T08:21:38;1.03;;;0.40;;
10701;SDS011;5402;50.004;8.246;2023-04-01T08:24:11;0.53;;;0.40;;
10701;SDS011;5402;50.004;8.246;2023-04-01T08:26:45;0.40;;;0.40;;
10701;SDS011;5402;50.004;8.246;2023-04-01T08:29:16;0.73;;;0.40;;
10701;SDS011;5402;50.004;8.246;2023-04-01T08:31:48;0.43;;;0.40;;
10701;SDS011;5402;50.004;8.246;2023-04-01T08:34:19;0.40;;;0.40;;
10701;SDS011;5402;50.004;8.246;2023-04-01T08:36:49;0.40;;;0.40;;
10701;SDS011;5402;50.004;8.246;2023-04-01T08:39:21;0.93;;;0.50;;
10701;SDS011;5402;50.004;8.246;2023-04-01T08:42:09;1.73;;;0.67;;
10701;SDS011;5402;50.004;8.246;2023-04-01T08:51:15;1.90;;;0.60;;
10701;SDS011;5402;50.004;8.246;2023-04-01T08:54:10;0.47;;;0.47;;
10701;SDS011;5402;50.004;8.246;2023-04-01T08:56:53;1.07;;;0.60;;
10701;SDS011;5402;50.004;8.246;2023-04-01T08:59:32;0.40;;;0.40;;
10701;SDS011;5402;50.004;8.246;2023-04-01T09:02:19;0.50;;;0.50;;
10701;SDS011;5402;50.004;8.246;2023-04-01T09:05:18;0.57;;;0.30;;
10701;SDS011;5402;50.004;8.246;2023-04-01T09:08:13;1.17;;;0.50;;
10701;SDS011;5402;50.004;8.246;2023-04-01T09:11:08;0.40;;;0.40;;
10701;SDS011;5402;50.004;8.246;2023-04-01T09:13:59;0.60;;;0.60;;
10701;SDS011;5402;50.004;8.246;2023-04-01T09:16:47;1.53;;;0.60;;
10701;SDS011;5402;50.004;8.246;2023-04-01T09:19:34;0.40;;;0.40;;
10701;SDS011;5402;50.004;8.246;2023-04-01T09:22:20;0.47;;;0.47;;
10701;SDS011;5402;50.004;8.246;2023-04-01T09:25:15;1.17;;;0.60;;
10701;SDS011;5402;50.004;8.246;2023-04-01T09:27:54;0.60;;;0.60;;
10701;SDS011;5402;50.004;8.246;2023-04-01T09:33:37;0.60;;;0.60;;
10701;SDS011;5402;50.004;8.246;2023-04-01T09:36:44;0.57;;;0.57;;
10701;SDS011;5402;50.004;8.246;2023-04-01T09:39:18;0.60;;;0.30;;
10701;SDS011;5402;50.004;8.246;2023-04-01T09:41:58;0.67;;;0.40;;
10701;SDS011;5402;50.004;8.246;2023-04-01T09:44:56;0.50;;;0.50;;
10701;SDS011;5402;50.004;8.246;2023-04-01T09:47:29;0.40;;;0.40;;
10701;SDS011;5402;50.004;8.246;2023-04-01T09:50:14;0.47;;;0.40;;
10701;SDS011;5402;50.004;8.246;2023-04-01T09:52:55;0.90;;;0.70;;
10701;SDS011;5402;50.004;8.246;2023-04-01T09:55:49;0.40;;;0.40;;
10701;SDS011;5402;50.004;8.246;2023-04-01T09:58:53;1.60;;;0.70;;
10701;SDS011;5402;50.004;8.246;2023-04-01T10:01:51;0.67;;;0.50;;
10701;SDS011;5402;50.004;8.246;2023-04-01T10:07:43;0.40;;;0.40;;
10701;SDS011;5402;50.004;8.246;2023-04-01T10:16:52;0.40;;;0.40;;
10701;SDS011;5402;50.004;8.246;2023-04-01T10:22:36;0.40;;;0.40;;
10701;SDS011;5402;50.004;8.246;2023-04-01T10:28:36;0.53;;;0.53;;
10701;SDS011;5402;50.004;8.246;2023-04-01T10:31:52;0.50;;;0.50;;
10701;SDS011;5402;50.004;8.246;2023-04-01T10:37:48;0.80;;;0.70;;
10701;SDS011;5402;50.004;8.246;2023-04-01T10:40:46;0.50;;;0.50;;
10701;SDS011;5402;50.004;8.246;2023-04-01T10:43:37;0.50;;;0.50;;
10701;SDS011;5402;50.004;8.246;2023-04-01T10:46:33;0.57;;;0.57;;
10701;SDS011;5402;50.004;8.246;2023-04-01T10:49:36;0.23;;;0.23;;
10701;SDS011;5402;50.004;8.246;2023-04-01T10:55:15;1.07;;;0.80;;
10701;SDS011;5402;50.004;8.246;2023-04-01T11:04:47;0.40;;;0.40;;
10701;SDS011;5402;50.004;8.246;2023-04-01T11:07:54;0.30;;;0.30;;
10701;SDS011;5402;50.004;8.246;2023-04-01T11:17:03;0.20;;;0.20;;
10701;SDS011;5402;50.004;8.246;2023-04-01T11:20:15;0.20;;;0.20;;
10701;SDS011;5402;50.004;8.246;2023-04-01T11:23:00;0.10;;;0.10;;
10701;SDS011;5402;50.004;8.246;2023-04-01T11:31:34;0.73;;;0.40;;
10701;SDS011;5402;50.004;8.246;2023-04-01T11:34:09;0.30;;;0.30;;
10701;SDS011;5402;50.004;8.246;2023-04-01T11:36:45;0.60;;;0.60;;
10701;SDS011;5402;50.004;8.246;2023-04-01T11:39:20;0.40;;;0.40;;
10701;SDS011;5402;50.004;8.246;2023-04-01T11:41:56;0.53;;;0.40;;
10701;SDS011;5402;50.004;8.246;2023-04-01T11:44:36;1.03;;;0.40;;
10701;SDS011;5402;50.004;8.246;2023-04-01T11:47:13;0.60;;;0.50;;
10701;SDS011;5402;50.004;8.246;2023-04-01T11:49:57;0.40;;;0.40;;
10701;SDS011;5402;50.004;8.246;2023-04-01T11:55:31;1.20;;;0.33;;
10701;SDS011;5402;50.004;8.246;2023-04-01T11:58:22;0.50;;;0.50;;
10701;SDS011;5402;50.004;8.246;2023-04-01T12:01:20;0.40;;;0.40;;
10701;SDS011;5402;50.004;8.246;2023-04-01T12:07:24;0.30;;;0.30;;
10701;SDS011;5402;50.004;8.246;2023-04-01T12:10:21;0.50;;;0.50;;
10701;SDS011;5402;50.004;8.246;2023-04-01T12:12:54;0.33;;;0.33;;
10701;SDS011;5402;50.004;8.246;2023-04-01T12:15:30;0.30;;;0.30;;
10701;SDS011;5402;50.004;8.246;2023-04-01T12:18:13;0.40;;;0.40;;
10701;SDS011;5402;50.004;8.246;2023-04-01T12:20:49;0.63;;;0.37;;
10701;SDS011;5402;50.004;8.246;2023-04-01T12:23:26;0.50;;;0.50;;
10701;SDS011;5402;50.004;8.246;2023-04-01T12:26:19;0.43;;;0.43;;
10701;SDS011;5402;50.004;8.246;2023-04-01T12:29:04;0.33;;;0.33;;
10701;SDS011;5402;50.004;8.246;2023-04-01T12:31:42;0.40;;;0.40;;
10701;SDS011;5402;50.004;8.246;2023-04-01T12:34:24;0.40;;;0.40;;
10701;SDS011;5402;50.004;8.246;2023-04-01T12:37:05;0.40;;;0.40;;
10701;SDS011;5402;50.004;8.246;2023-04-01T12:39:44;0.53;;;0.53;;
10701;SDS011;5402;50.004;8.246;2023-04-01T12:42:31;0.40;;;0.40;;
10701;SDS011;5402;50.004;8.246;2023-04-01T12:48:01;0.63;;;0.50;;
10701;SDS011;5402;50.004;8.246;2023-04-01T12:50:46;0.70;;;0.50;;
10701;SDS011;5402;50.004;8.246;2023-04-01T12:53:37;0.50;;;0.50;;
10701;SDS011;5402;50.004;8.246;2023-04-01T12:56:36;1.40;;;0.47;;
10701;SDS011;5402;50.004;8.246;2023-04-01T12:59:38;0.57;;;0.57;;
10701;SDS011;5402;50.004;8.246;2023-04-01T13:02:12;0.60;;;0.60;;
10701;SDS011;5402;50.004;8.246;2023-04-01T13:04:52;0.53;;;0.53;;
10701;SDS011;5402;50.004;8.246;2023-04-01T13:07:34;1.30;;;0.80;;
10701;SDS011;5402;50.004;8.246;2023-04-01T13:10:20;2.20;;;0.70;;
10701;SDS011;5402;50.004;8.246;2023-04-01T13:15:50;0.90;;;0.80;;
10701;SDS011;5402;50.004;8.246;2023-04-01T13:18:23;0.70;;;0.70;;
10701;SDS011;5402;50.004;8.246;2023-04-01T13:21:04;0.83;;;0.63;;
10701;SDS011;5402;50.004;8.246;2023-04-01T13:23:48;1.20;;;1.10;;
10701;SDS011;5402;50.004;8.246;2023-04-01T13:26:22;0.40;;;0.40;;
10701;SDS011;5402;50.004;8.246;2023-04-01T13:28:57;0.40;;;0.40;;
10701;SDS011;5402;50.004;8.246;2023-04-01T13:31:36;0.50;;;0.50;;
10701;SDS011;5402;50.004;8.246;2023-04-01T13:34:22;0.63;;;0.63;;
10701;SDS011;5402;50.004;8.246;2023-04-01T13:37:04;0.50;;;0.50;;
10701;SDS011;5402;50.004;8.246;2023-04-01T13:39:44;0.70;;;0.70;;
10701;SDS011;5402;50.004;8.246;2023-04-01T13:42:29;0.67;;;0.67;;
10701;SDS011;5402;50.004;8.246;2023-04-01T13:45:00;0.77;;;0.77;;
10701;SDS011;5402;50.004;8.246;2023-04-01T13:53:54;0.40;;;0.40;;
10701;SDS011;5402;50.004;8.246;2023-04-01T13:56:42;0.40;;;0.40;;
10701;SDS011;5402;50.004;8.246;2023-04-01T14:02:38;0.60;;;0.53;;
10701;SDS011;5402;50.004;8.246;2023-04-01T14:08:08;0.50;;;0.50;;
10701;SDS011;5402;50.004;8.246;2023-04-01T14:10:48;0.30;;;0.30;;
10701;SDS011;5402;50.004;8.246;2023-04-01T14:13:22;0.40;;;0.40;;
10701;SDS011;5402;50.004;8.246;2023-04-01T14:16:04;0.43;;;0.43;;
10701;SDS011;5402;50.004;8.246;2023-04-01T14:18:52;0.50;;;0.50;;
10701;SDS011;5402;50.004;8.246;2023-04-01T14:21:52;0.97;;;0.67;;
10701;SDS011;5402;50.004;8.246;2023-04-01T14:24:31;0.40;;;0.40;;
10701;SDS011;5402;50.004;8.246;2023-04-01T14:27:32;0.60;;;0.40;;
10701;SDS011;5402;50.004;8.246;2023-04-01T14:30:14;0.73;;;0.60;;
10701;SDS011;5402;50.004;8.246;2023-04-01T14:32:51;3.00;;;0.50;;
10701;SDS011;5402;50.004;8.246;2023-04-01T14:35:27;0.83;;;0.43;;
10701;SDS011;5402;50.004;8.246;2023-04-01T14:38:09;0.60;;;0.60;;
10701;SDS011;5402;50.004;8.246;2023-04-01T14:41:00;0.63;;;0.50;;
10701;SDS011;5402;50.004;8.246;2023-04-01T14:46:58;1.00;;;0.70;;
10701;SDS011;5402;50.004;8.246;2023-04-01T14:49:42;0.97;;;0.70;;
10701;SDS011;5402;50.004;8.246;2023-04-01T14:52:13;0.73;;;0.67;;
10701;SDS011;5402;50.004;8.246;2023-04-01T14:54:45;0.77;;;0.77;;
10701;SDS011;5402;50.004;8.246;2023-04-01T14:57:15;0.77;;;0.73;;
10701;SDS011;5402;50.004;8.246;2023-04-01T14:59:49;1.00;;;0.70;;
10701;SDS011;5402;50.004;8.246;2023-04-01T15:05:17;0.60;;;0.60;;
10701;SDS011;5402;50.004;8.246;2023-04-01T15:07:59;0.53;;;0.40;;
10701;SDS011;5402;50.004;8.246;2023-04-01T15:13:53;0.40;;;0.40;;
10701;SDS011;5402;50.004;8.246;2023-04-01T15:16:40;0.70;;;0.70;;
10701;SDS011;5402;50.004;8.246;2023-04-01T15:19:17;0.33;;;0.30;;
10701;SDS011;5402;50.004;8.246;2023-04-01T15:22:13;1.23;;;0.60;;
10701;SDS011;5402;50.004;8.246;2023-04-01T15:24:57;0.60;;;0.60;;
10701;SDS011;5402;50.004;8.246;2023-04-01T15:27:34;0.60;;;0.60;;
10701;SDS011;5402;50.004;8.246;2023-04-01T15:30:19;1.17;;;0.77;;
10701;SDS011;5402;50.004;8.246;2023-04-01T15:33:01;0.47;;;0.47;;
10701;SDS011;5402;50.004;8.246;2023-04-01T15:35:39;0.50;;;0.40;;
10701;SDS011;5402;50.004;8.246;2023-04-01T15:38:16;0.43;;;0.43;;
10701;SDS011;5402;50.004;8.246;2023-04-01T15:40:49;0.47;;;0.47;;
10701;SDS011;5402;50.004;8.246;2023-04-01T15:43:27;0.50;;;0.50;;
10701;SDS011;5402;50.004;8.246;2023-04-01T15:46:12;0.50;;;0.50;;
10701;SDS011;5402;50.004;8.246;2023-04-01T15:48:50;0.40;;;0.40;;
10701;SDS011;5402;50.004;8.246;2023-04-01T15:51:40;0.40;;;0.40;;
10701;SDS011;5402;50.004;8.246;2023-04-01T15:54:22;0.40;;;0.40;;
10701;SDS011;5402;50.004;8.246;2023-04-01T15:57:15;0.97;;;0.60;;
10701;SDS011;5402;50.004;8.246;2023-04-01T16:00:00;1.00;;;0.60;;
10701;SDS011;5402;50.004;8.246;2023-04-01T16:02:53;0.67;;;0.60;;
10701;SDS011;5402;50.004;8.246;2023-04-01T16:05:47;0.97;;;0.70;;
10701;SDS011;5402;50.004;8.246;2023-04-01T16:11:23;1.50;;;0.90;;
10701;SDS011;5402;50.004;8.246;2023-04-01T16:13:59;0.60;;;0.60;;
10701;SDS011;5402;50.004;8.246;2023-04-01T16:16:39;0.60;;;0.40;;
10701;SDS011;5402;50.004;8.246;2023-04-01T16:19:22;0.60;;;0.50;;
10701;SDS011;5402;50.004;8.246;2023-04-01T16:21:58;0.93;;;0.40;;
10701;SDS011;5402;50.004;8.246;2023-04-01T16:24:34;0.50;;;0.50;;
10701;SDS011;5402;50.004;8.246;2023-04-01T16:27:06;0.60;;;0.60;;
10701;SDS011;5402;50.004;8.246;2023-04-01T16:29:39;0.50;;;0.50;;
10701;SDS011;5402;50.004;8.246;2023-04-01T16:32:16;0.30;;;0.30;;
10701;SDS011;5402;50.004;8.246;2023-04-01T16:34:56;0.70;;;0.60;;
10701;SDS011;5402;50.004;8.246;2023-04-01T16:37:32;1.10;;;0.70;;
10701;SDS011;5402;50.004;8.246;2023-04-01T16:40:09;0.33;;;0.30;;
10701;SDS011;5402;50.004;8.246;2023-04-01T16:42:44;0.57;;;0.50;;
10701;SDS011;5402;50.004;8.246;2023-04-01T16:45:19;0.93;;;0.60;;
10701;SDS011;5402;50.004;8.246;2023-04-01T16:47:55;1.23;;;1.03;;
10701;SDS011;5402;50.004;8.246;2023-04-01T16:50:28;0.40;;;0.40;;
10701;SDS011;5402;50.004;8.246;2023-04-01T16:53:09;1.90;;;0.30;;
10701;SDS011;5402;50.004;8.246;2023-04-01T16:55:43;0.63;;;0.50;;
10701;SDS011;5402;50.004;8.246;2023-04-01T16:58:14;0.57;;;0.57;;
10701;SDS011;5402;50.004;8.246;2023-04-01T17:00:48;1.93;;;0.63;;
10701;SDS011;5402;50.004;8.246;2023-04-01T17:03:17;0.83;;;0.70;;
10701;SDS011;5402;50.004;8.246;2023-04-01T17:05:52;0.50;;;0.50;;
10701;SDS011;5402;50.004;8.246;2023-04-01T17:08:30;0.60;;;0.60;;
10701;SDS011;5402;50.004;8.246;2023-04-01T17:11:06;0.70;;;0.70;;
10701;SDS011;5402;50.004;8.246;2023-04-01T17:13:40;0.50;;;0.50;;
10701;SDS011;5402;50.004;8.246;2023-04-01T17:16:17;2.73;;;0.80;;
10701;SDS011;5402;50.004;8.246;2023-04-01T17:19:11;0.63;;;0.63;;
10701;SDS011;5402;50.004;8.246;2023-04-01T17:21:49;0.60;;;0.60;;
10701;SDS011;5402;50.004;8.246;2023-04-01T17:24:29;0.80;;;0.50;;
10701;SDS011;5402;50.004;8.246;2023-04-01T17:27:05;1.40;;;0.90;;
10701;SDS011;5402;50.004;8.246;2023-04-01T17:29:55;2.10;;;0.50;;